Time;durP1;ratioP1;P1;durP2;ratioP2;P2;SDS_P1;SDS_P2;PMS_P1;PMS_P2;Temp;Humidity;BMP_temperature;BMP_pressure;BME280_temperature;BME280_humidity;BME280_pressure;Samples;Min_cycle;Max_cycle;Signal;HPM_P1;HPM_P2
2022/10/03 05:30:55;;;;;;;2.70;2.23;;;20.50;54.70;;;;;;6168243;23;20179;-91
2022/10/03 05:43:21;;;;;;;2.37;1.80;;;20.40;54.80;;;;;;6152750;23;20363;-93
2022/10/03 05:46:42;;;;;;;;;;;;;;;;;;;;;
2022/10/03 05:49:39;;;;;;;;;;;;;;;;;;;;;
2022/10/03 05:52:46;;;;;;;;;;;;;;;;;;;;;
2022/10/03 05:56:14;;;;;;;2.17;1.80;;;20.50;54.90;;;;;;6260506;23;20373;-93
2022/10/03 05:59:37;;;;;;;;;;;;;;;;;;;;;
2022/10/03 06:02:33;;;;;;;2.07;1.67;;;20.50;55.00;;;;;;6264776;23;20350;-92
2022/10/03 06:06:22;;;;;;;;;;;;;;;;;;;;;
2022/10/03 06:12:45;;;;;;;;;;;;;;;;;;;;;
2022/10/03 06:22:20;;;;;;;3.57;2.03;;;20.50;55.20;;;;;;6259801;23;20771;-92
2022/10/03 06:25:06;;;;;;;4.03;1.93;;;20.40;55.20;;;;;;6236134;23;20460;-92
2022/10/03 06:28:01;;;;;;;2.80;2.20;;;20.50;55.30;;;;;;6263079;23;20381;-92
2022/10/03 06:38:01;;;;;;;3.47;2.30;;;20.50;55.30;;;;;;6199293;23;20422;-94
2022/10/03 06:40:51;;;;;;;3.27;1.80;;;20.50;55.20;;;;;;6173630;23;20367;-93
2022/10/03 06:43:56;;;;;;;;;;;;;;;;;;;;;
2022/10/03 06:50:28;;;;;;;5.43;1.73;;;20.50;55.30;;;;;;6111585;23;20378;-94
2022/10/03 06:53:15;;;;;;;2.67;1.87;;;20.50;55.70;;;;;;6087132;23;20516;-94
2022/10/03 06:56:39;;;;;;;3.20;1.80;;;20.50;55.30;;;;;;6109446;23;20382;-94
2022/10/03 07:00:03;;;;;;;;;;;;;;;;;;;;;
2022/10/03 07:03:22;;;;;;;;;;;;;;;;;;;;;
2022/10/03 07:06:46;;;;;;;;;;;;;;;;;;;;;
2022/10/03 07:12:51;;;;;;;3.70;2.67;;;20.50;55.40;;;;;;6144042;23;20519;-94
2022/10/03 07:16:20;;;;;;;;;;;;;;;;;;;;;
2022/10/03 07:19:22;;;;;;;;;;;;;;;;;;;;;
2022/10/03 07:29:22;;;;;;;5.37;2.70;;;20.60;55.40;;;;;;6023470;23;20435;-93
2022/10/03 07:32:37;;;;;;;4.27;2.37;;;20.60;55.50;;;;;;6022805;23;20435;-93
2022/10/03 07:38:56;;;;;;;;;;;;;;;;;;;;;
2022/10/03 07:42:01;;;;;;;3.80;2.13;;;20.60;55.40;;;;;;6052824;23;20525;-94
2022/10/03 07:44:50;;;;;;;;;;;;;;;;;;;;;
2022/10/03 07:48:07;;;;;;;2.60;1.77;;;20.60;55.40;;;;;;6023460;23;20408;-91
2022/10/03 07:51:24;;;;;;;2.87;2.10;;;20.60;55.30;;;;;;6023771;23;20385;-92
2022/10/03 08:01:31;;;;;;;3.90;1.90;;;20.50;55.50;;;;;;5998467;24;20357;-94
2022/10/03 08:04:15;;;;;;;2.23;1.77;;;20.50;55.40;;;;;;5999597;24;20445;-93
2022/10/03 08:07:22;;;;;;;;;;;;;;;;;;;;;
2022/10/03 08:10:43;;;;;;;;;;;;;;;;;;;;;
2022/10/03 08:13:42;;;;;;;6.60;2.17;;;20.60;55.70;;;;;;6043504;23;20462;-94
2022/10/03 08:16:32;;;;;;;2.70;1.80;;;20.60;55.70;;;;;;6032277;23;20388;-93
2022/10/03 08:19:25;;;;;;;;;;;;;;;;;;;;;
2022/10/03 08:22:13;;;;;;;2.80;1.47;;;20.60;55.70;;;;;;6052528;23;20398;-94
2022/10/03 08:25:23;;;;;;;3.23;1.97;;;20.60;55.70;;;;;;6027905;23;20423;-94
2022/10/03 08:28:09;;;;;;;6.00;1.90;;;20.60;55.60;;;;;;6028050;23;20372;-93
2022/10/03 08:31:01;;;;;;;3.87;1.73;;;20.60;55.60;;;;;;6028295;23;20399;-93
2022/10/03 08:34:17;;;;;;;2.70;1.73;;;20.60;55.60;;;;;;6136312;23;20387;-93
2022/10/03 08:37:33;;;;;;;;;;;;;;;;;;;;;
2022/10/03 08:40:25;;;;;;;2.33;1.80;;;20.60;55.60;;;;;;6229963;23;20381;-94
2022/10/03 09:14:31;;;;;;;2.63;1.90;;;20.60;55.70;;;;;;5860216;24;20434;-95
2022/10/03 09:17:32;;;;;;;2.37;1.90;;;20.60;55.60;;;;;;5861729;24;20390;-94
2022/10/03 09:20:40;;;;;;;;;;;;;;;;;;;;;
2022/10/03 09:23:42;;;;;;;;;;;;;;;;;;;;;
2022/10/03 09:26:45;;;;;;;3.07;1.67;;;20.60;55.60;;;;;;5964705;24;20437;-93
2022/10/03 09:29:58;;;;;;;;;;;;;;;;;;;;;
2022/10/03 09:33:00;;;;;;;1.50;1.13;;;20.60;55.60;;;;;;6138147;23;20428;-93
2022/10/03 09:35:40;;;;;;;3.53;1.93;;;20.60;55.60;;;;;;6113651;23;20714;-93
2022/10/03 09:41:57;;;;;;;2.00;1.73;;;20.60;55.60;;;;;;6122664;23;20404;-93
2022/10/03 09:44:50;;;;;;;5.00;1.83;;;20.60;55.60;;;;;;6112669;23;20381;-94
2022/10/03 09:47:37;;;;;;;2.07;1.87;;;20.60;55.50;;;;;;6175977;23;20449;-93
2022/10/03 09:50:45;;;;;;;;;;;;;;;;;;;;;
2022/10/03 09:53:46;;;;;;;;;;;;;;;;;;;;;
2022/10/03 09:57:29;;;;;;;;;;;;;;;;;;;;;
2022/10/03 10:00:23;;;;;;;3.37;1.60;;;20.70;55.60;;;;;;6118774;23;20385;-93
2022/10/03 10:03:19;;;;;;;4.30;1.53;;;20.60;55.50;;;;;;6231564;23;20392;-93
2022/10/03 10:09:49;;;;;;;;;;;;;;;;;;;;;
2022/10/03 10:13:00;;;;;;;2.53;1.90;;;20.60;55.40;;;;;;6232278;23;20886;-94
2022/10/03 10:16:08;;;;;;;;;;;;;;;;;;;;;
2022/10/03 10:18:52;;;;;;;2.63;1.73;;;20.70;55.50;;;;;;6234258;23;20357;-93
2022/10/03 10:21:47;;;;;;;2.73;1.70;;;20.70;55.40;;;;;;6229097;23;20446;-93
2022/10/03 10:24:38;;;;;;;;;;;;;;;;;;;;;
2022/10/03 10:31:06;;;;;;;;;;;;;;;;;;;;;
2022/10/03 10:33:55;;;;;;;1.97;1.53;;;20.70;55.40;;;;;;6138406;23;20408;-94
